Time;durP1;ratioP1;P1;durP2;ratioP2;P2;SDS_P1;SDS_P2;PMS_P1;PMS_P2;Temp;Humidity;BMP_temperature;BMP_pressure;BME280_temperature;BME280_humidity;BME280_pressure;Samples;Min_cycle;Max_cycle;Signal;HPM_P1;HPM_P2
2023/08/16 00:02:11;;;;;;;3.97;2.40;;;18.80;99.90;;;;;;5060980;28;20209;-80
2023/08/16 00:04:37;;;;;;;3.08;2.78;;;18.80;99.90;;;;;;5060443;28;20174;-83
2023/08/16 00:07:03;;;;;;;5.35;2.67;;;18.80;99.90;;;;;;5060166;28;20572;-84
2023/08/16 00:09:29;;;;;;;2.83;2.63;;;18.60;99.90;;;;;;5042373;28;20195;-84
2023/08/16 00:11:54;;;;;;;4.53;2.75;;;18.50;99.90;;;;;;5041577;28;20245;-83
2023/08/16 00:14:20;;;;;;;3.70;2.80;;;18.30;99.90;;;;;;5060314;28;20200;-82
2023/08/16 00:16:46;;;;;;;4.05;3.15;;;18.20;99.90;;;;;;5041554;28;20200;-83
2023/08/16 00:19:11;;;;;;;4.28;2.80;;;18.30;99.90;;;;;;5059506;28;20200;-82
2023/08/16 00:21:37;;;;;;;4.72;3.10;;;18.30;99.90;;;;;;5041198;28;20205;-83
2023/08/16 00:24:04;;;;;;;3.10;2.73;;;18.20;99.90;;;;;;5041345;28;20195;-83
2023/08/16 00:26:30;;;;;;;3.73;3.23;;;18.20;99.90;;;;;;5041335;28;20197;-82
2023/08/16 00:28:56;;;;;;;5.80;3.20;;;18.20;99.90;;;;;;5041304;28;20224;-83
2023/08/16 00:31:22;;;;;;;3.40;3.10;;;18.20;99.90;;;;;;5040989;28;20198;-83
2023/08/16 00:33:48;;;;;;;4.07;3.03;;;18.10;99.90;;;;;;5041261;28;20169;-83
2023/08/16 00:36:14;;;;;;;5.60;3.30;;;18.10;99.90;;;;;;5060123;28;20189;-82
2023/08/16 00:38:43;;;;;;;4.33;3.43;;;18.10;99.90;;;;;;5059268;28;20162;-83
2023/08/16 00:41:13;;;;;;;4.70;3.60;;;18.10;99.90;;;;;;5041949;28;20214;-82
2023/08/16 00:43:39;;;;;;;5.83;3.70;;;18.10;99.90;;;;;;5044957;28;20288;-82
2023/08/16 00:46:09;;;;;;;4.00;3.63;;;18.20;99.90;;;;;;5045186;28;20264;-82
2023/08/16 00:48:36;;;;;;;4.73;3.60;;;18.30;99.90;;;;;;5062742;28;20176;-84
2023/08/16 00:51:03;;;;;;;4.10;3.60;;;18.40;99.90;;;;;;5045179;28;20198;-82
2023/08/16 00:53:31;;;;;;;3.75;3.33;;;18.50;99.90;;;;;;5044766;28;20175;-84
2023/08/16 00:55:57;;;;;;;4.10;3.50;;;18.40;99.90;;;;;;5063470;28;20268;-82
2023/08/16 00:58:23;;;;;;;3.90;3.33;;;18.30;99.90;;;;;;5063724;28;20173;-82
2023/08/16 01:00:49;;;;;;;4.30;3.90;;;18.40;99.90;;;;;;5062880;28;20197;-84
2023/08/16 01:03:14;;;;;;;5.17;3.83;;;18.40;99.90;;;;;;5044517;28;20300;-82
2023/08/16 01:05:40;;;;;;;3.83;3.50;;;18.30;99.90;;;;;;5062252;28;20180;-83
2023/08/16 01:08:06;;;;;;;4.80;4.00;;;18.30;99.90;;;;;;5063131;28;20177;-83
2023/08/16 01:11:03;;;;;;;4.60;3.30;;;18.30;99.90;;;;;;5063329;28;20204;-82
2023/08/16 01:13:52;;;;;;;5.82;3.30;;;18.40;99.90;;;;;;5062342;28;20185;-83
2023/08/16 01:16:20;;;;;;;3.28;2.97;;;18.50;99.90;;;;;;5044562;28;20182;-83
2023/08/16 01:18:46;;;;;;;4.07;3.17;;;18.30;99.90;;;;;;5044167;28;20231;-84
2023/08/16 01:21:15;;;;;;;3.97;3.50;;;18.30;99.90;;;;;;5062639;28;20198;-84
2023/08/16 01:24:06;;;;;;;4.63;3.70;;;18.20;99.90;;;;;;5044709;28;20194;-82
2023/08/16 01:26:33;;;;;;;5.38;3.25;;;18.20;99.90;;;;;;5062857;28;20245;-84
2023/08/16 01:29:01;;;;;;;3.43;3.13;;;18.10;99.90;;;;;;5062988;28;20174;-83
2023/08/16 01:31:27;;;;;;;4.90;3.87;;;18.10;99.90;;;;;;5049310;28;20206;-83
2023/08/16 01:33:52;;;;;;;5.83;4.33;;;18.20;99.90;;;;;;5062274;28;20188;-82
2023/08/16 01:36:18;;;;;;;5.65;3.88;;;18.20;99.90;;;;;;5062644;28;20640;-84
2023/08/16 01:38:44;;;;;;;6.40;3.63;;;18.20;99.90;;;;;;5061828;28;20166;-82
2023/08/16 01:41:15;;;;;;;3.73;3.20;;;18.10;99.90;;;;;;5043891;28;20202;-82
2023/08/16 01:43:43;;;;;;;4.77;3.93;;;18.10;99.90;;;;;;5043881;28;20201;-83
2023/08/16 01:46:10;;;;;;;5.63;3.90;;;18.00;99.90;;;;;;5061188;28;20166;-82
2023/08/16 01:48:38;;;;;;;18.07;5.87;;;18.00;99.90;;;;;;5061868;28;20166;-82
2023/08/16 01:51:04;;;;;;;9.70;5.37;;;18.00;99.90;;;;;;5043722;28;20205;-82
2023/08/16 01:53:31;;;;;;;9.90;5.20;;;18.10;99.90;;;;;;5061289;28;20182;-82
2023/08/16 01:55:57;;;;;;;8.67;4.77;;;18.10;99.90;;;;;;5043868;28;20177;-84
2023/08/16 01:58:22;;;;;;;7.70;4.73;;;18.00;99.90;;;;;;5043297;28;20173;-82
2023/08/16 02:00:48;;;;;;;11.30;4.93;;;18.00;99.90;;;;;;5061589;28;20564;-83
2023/08/16 02:03:13;;;;;;;9.93;4.70;;;18.00;99.90;;;;;;5045037;28;20213;-82
2023/08/16 02:05:39;;;;;;;6.20;4.33;;;17.90;99.90;;;;;;5061650;28;20649;-83
2023/08/16 02:08:04;;;;;;;9.67;4.40;;;17.90;99.90;;;;;;5062478;28;20169;-82
2023/08/16 02:10:30;;;;;;;6.57;4.60;;;17.90;99.90;;;;;;5043138;28;20189;-82
2023/08/16 02:12:56;;;;;;;5.83;4.47;;;17.90;99.90;;;;;;5061137;28;20181;-82
2023/08/16 02:15:21;;;;;;;6.93;3.60;;;17.90;99.90;;;;;;5061712;28;20185;-82
2023/08/16 02:17:47;;;;;;;6.50;4.43;;;18.00;99.90;;;;;;5042735;28;20532;-82
2023/08/16 02:20:12;;;;;;;10.20;4.60;;;17.90;99.90;;;;;;5061757;28;20190;-82
2023/08/16 02:22:39;;;;;;;10.57;4.60;;;17.80;99.90;;;;;;5043361;28;20240;-82
2023/08/16 02:25:05;;;;;;;6.23;4.50;;;17.70;99.90;;;;;;5060613;28;20174;-82
2023/08/16 02:27:32;;;;;;;6.60;3.80;;;17.80;99.90;;;;;;5043191;28;20170;-83
2023/08/16 02:29:58;;;;;;;4.33;3.93;;;17.60;99.90;;;;;;5042810;28;20193;-83
2023/08/16 02:32:23;;;;;;;5.97;4.00;;;17.60;99.90;;;;;;5042527;28;20169;-82
2023/08/16 02:34:49;;;;;;;7.20;4.13;;;17.60;99.90;;;;;;5061723;28;20166;-83
2023/08/16 02:37:15;;;;;;;5.10;4.37;;;17.70;99.90;;;;;;5061393;28;20174;-83
2023/08/16 02:39:41;;;;;;;4.77;4.30;;;17.70;99.90;;;;;;5043454;28;20205;-83
2023/08/16 02:42:06;;;;;;;5.47;4.40;;;17.80;99.90;;;;;;5042157;28;20284;-82
2023/08/16 02:44:32;;;;;;;6.90;4.10;;;17.80;99.90;;;;;;5042152;28;20205;-82
2023/08/16 02:46:57;;;;;;;6.30;4.40;;;17.80;99.90;;;;;;5041819;28;20177;-83
2023/08/16 02:49:23;;;;;;;7.77;4.60;;;17.70;99.90;;;;;;5042494;28;20174;-84
2023/08/16 02:51:48;;;;;;;5.80;3.93;;;17.80;99.90;;;;;;5041926;28;20178;-83
2023/08/16 02:54:14;;;;;;;5.33;4.13;;;17.80;99.90;;;;;;5042557;28;20177;-82
2023/08/16 02:56:40;;;;;;;5.50;4.33;;;17.80;99.90;;;;;;5060338;28;20252;-82
2023/08/16 02:59:09;;;;;;;5.70;4.63;;;17.90;99.90;;;;;;5060318;28;20241;-83
2023/08/16 03:01:34;;;;;;;6.13;4.73;;;18.00;99.90;;;;;;5060593;28;20664;-83
2023/08/16 03:04:00;;;;;;;5.67;4.80;;;18.00;99.90;;;;;;5041823;28;20186;-83
2023/08/16 03:06:25;;;;;;;6.53;5.13;;;18.00;99.90;;;;;;5040994;28;20174;-82
2023/08/16 03:08:51;;;;;;;12.87;6.20;;;18.00;99.90;;;;;;5041135;28;20177;-83
2023/08/16 03:11:16;;;;;;;7.70;6.37;;;18.00;99.90;;;;;;5041397;28;20194;-83
2023/08/16 03:13:42;;;;;;;11.30;6.40;;;18.10;99.90;;;;;;5042197;28;20181;-84
2023/08/16 03:16:07;;;;;;;9.17;5.77;;;18.10;99.90;;;;;;5060425;28;20178;-82
2023/08/16 03:18:33;;;;;;;9.00;6.20;;;18.10;99.90;;;;;;5041871;28;20174;-82
2023/08/16 03:20:58;;;;;;;10.53;5.93;;;18.20;99.90;;;;;;5041812;28;20193;-83
2023/08/16 03:23:24;;;;;;;6.63;5.50;;;18.20;99.90;;;;;;5060054;28;20699;-82
2023/08/16 03:25:50;;;;;;;9.33;5.87;;;18.20;99.90;;;;;;5059301;28;20216;-83
2023/08/16 03:28:15;;;;;;;8.70;5.83;;;18.10;99.90;;;;;;5041156;28;20196;-83
2023/08/16 03:30:41;;;;;;;6.93;5.63;;;18.10;99.90;;;;;;5041130;28;20209;-83
2023/08/16 03:33:06;;;;;;;13.67;6.37;;;18.20;99.90;;;;;;5060212;28;20178;-82
2023/08/16 03:35:32;;;;;;;15.20;7.00;;;18.10;99.90;;;;;;5059913;28;20178;-83
2023/08/16 03:37:57;;;;;;;8.90;6.93;;;18.10;99.90;;;;;;5041605;28;20173;-83
2023/08/16 03:40:23;;;;;;;10.37;6.80;;;18.10;99.90;;;;;;5041302;28;20342;-85
2023/08/16 03:42:48;;;;;;;11.50;6.93;;;18.20;99.90;;;;;;5041393;28;20208;-82
2023/08/16 03:45:14;;;;;;;9.73;7.50;;;18.20;99.90;;;;;;5059296;28;20180;-82
2023/08/16 03:47:40;;;;;;;11.53;6.97;;;18.20;99.90;;;;;;5059720;28;20172;-83
2023/08/16 03:50:05;;;;;;;13.17;6.83;;;18.20;99.90;;;;;;5040916;28;20200;-82
2023/08/16 03:52:31;;;;;;;11.50;6.57;;;18.20;99.90;;;;;;5041231;28;20227;-82
2023/08/16 03:54:57;;;;;;;11.07;6.63;;;18.30;99.90;;;;;;5041182;28;20181;-83
2023/08/16 03:57:23;;;;;;;12.87;7.10;;;18.30;99.90;;;;;;5060013;28;20245;-82
2023/08/16 03:59:52;;;;;;;12.90;7.70;;;18.30;99.90;;;;;;5040810;28;20193;-83
2023/08/16 04:02:19;;;;;;;9.17;6.77;;;18.30;99.90;;;;;;5040939;28;20201;-83
2023/08/16 04:04:45;;;;;;;10.13;7.00;;;18.30;99.90;;;;;;5059024;28;20255;-83
2023/08/16 04:07:11;;;;;;;8.83;7.10;;;18.30;99.90;;;;;;5058312;28;20170;-83
2023/08/16 04:09:36;;;;;;;9.53;6.73;;;18.40;99.90;;;;;;5039966;28;20217;-82
2023/08/16 04:12:02;;;;;;;9.37;6.40;;;18.30;99.90;;;;;;5045091;28;20200;-83
2023/08/16 04:14:28;;;;;;;10.67;7.20;;;18.30;99.90;;;;;;5059664;28;20170;-83
2023/08/16 04:16:53;;;;;;;8.70;6.90;;;18.30;99.90;;;;;;5040948;28;20205;-83
2023/08/16 04:19:19;;;;;;;9.57;6.67;;;18.40;99.90;;;;;;5040592;28;20188;-83
2023/08/16 04:21:44;;;;;;;10.00;7.60;;;18.40;99.90;;;;;;5058773;28;20189;-83
2023/08/16 04:24:10;;;;;;;12.20;7.57;;;18.40;99.90;;;;;;5041028;28;20178;-83
2023/08/16 04:26:35;;;;;;;9.20;6.80;;;18.40;99.90;;;;;;5040637;28;20199;-83
2023/08/16 04:29:01;;;;;;;8.83;7.10;;;18.40;99.90;;;;;;5040599;28;20173;-85
2023/08/16 04:31:26;;;;;;;9.98;6.72;;;18.40;99.90;;;;;;5040919;28;20194;-83
2023/08/16 04:33:52;;;;;;;8.37;6.63;;;18.40;99.90;;;;;;5040706;28;20189;-83
2023/08/16 04:36:18;;;;;;;12.07;7.03;;;18.40;99.90;;;;;;5041230;28;20178;-83
2023/08/16 04:38:43;;;;;;;10.83;7.30;;;18.40;99.90;;;;;;5059342;28;20575;-84
2023/08/16 04:41:09;;;;;;;10.23;6.87;;;18.40;99.90;;;;;;5040557;28;20209;-83
2023/08/16 04:43:34;;;;;;;9.65;7.30;;;18.50;99.90;;;;;;5040048;28;20309;-81
2023/08/16 04:46:00;;;;;;;8.00;6.97;;;18.60;99.90;;;;;;5058471;28;20174;-84
2023/08/16 04:48:26;;;;;;;8.57;7.07;;;18.70;99.90;;;;;;5040670;28;20170;-83
2023/08/16 04:50:51;;;;;;;11.60;7.67;;;18.80;99.90;;;;;;5059423;28;20198;-83
2023/08/16 04:53:17;;;;;;;10.43;7.43;;;18.80;99.90;;;;;;5058812;28;20701;-83
2023/08/16 04:55:42;;;;;;;11.73;7.93;;;18.80;99.90;;;;;;5040175;28;20224;-84
2023/08/16 04:58:08;;;;;;;10.90;7.82;;;18.80;99.90;;;;;;5039702;28;20196;-86
2023/08/16 05:00:33;;;;;;;8.38;6.35;;;18.80;99.90;;;;;;5039750;28;20304;-83
2023/08/16 05:02:59;;;;;;;7.63;6.37;;;18.80;99.90;;;;;;5040007;28;20205;-84
2023/08/16 05:05:26;;;;;;;8.50;6.47;;;18.80;99.90;;;;;;5057467;28;20176;-83
2023/08/16 05:07:52;;;;;;;8.38;5.50;;;18.80;99.90;;;;;;5038841;28;20178;-83
2023/08/16 05:10:17;;;;;;;5.68;4.20;;;18.80;99.90;;;;;;5057780;28;20247;-82
2023/08/16 05:12:43;;;;;;;6.10;3.80;;;19.40;99.90;;;;;;5038892;28;20177;-84
2023/08/16 05:15:09;;;;;;;5.65;3.92;;;20.60;99.90;;;;;;5039735;28;20201;-82
2023/08/16 05:17:35;;;;;;;4.30;3.90;;;21.10;99.90;;;;;;5057473;28;20177;-84
2023/08/16 05:20:01;;;;;;;9.70;4.57;;;21.60;99.90;;;;;;5039847;28;20201;-84
2023/08/16 05:22:27;;;;;;;4.53;4.13;;;21.90;99.90;;;;;;5059296;28;20198;-83
2023/08/16 05:24:52;;;;;;;5.20;4.22;;;21.90;99.90;;;;;;5058871;28;20170;-83
2023/08/16 05:27:18;;;;;;;6.15;5.35;;;22.00;99.90;;;;;;5039899;28;20174;-83
2023/08/16 05:29:43;;;;;;;6.60;4.53;;;21.90;99.90;;;;;;5042446;28;20201;-82
2023/08/16 05:32:09;;;;;;;4.95;4.32;;;21.80;99.90;;;;;;5062152;28;20786;-83
2023/08/16 05:34:34;;;;;;;4.38;3.97;;;21.90;99.90;;;;;;5043784;28;20234;-82
2023/08/16 05:37:00;;;;;;;6.28;5.28;;;21.90;99.90;;;;;;5060721;28;20173;-83
2023/08/16 05:39:25;;;;;;;6.07;5.32;;;22.00;99.90;;;;;;5039512;28;20204;-81
2023/08/16 05:41:51;;;;;;;6.07;5.18;;;21.80;99.90;;;;;;5039637;28;20227;-82
2023/08/16 05:44:17;;;;;;;8.25;6.03;;;21.60;99.90;;;;;;5041350;28;20200;-85
2023/08/16 05:46:42;;;;;;;7.68;5.95;;;21.20;99.90;;;;;;5059671;28;20177;-84
2023/08/16 05:49:08;;;;;;;7.88;6.43;;;20.90;99.90;;;;;;5043000;28;20202;-83
2023/08/16 05:51:34;;;;;;;5.90;4.47;;;20.70;99.90;;;;;;5041817;28;20178;-83
2023/08/16 05:54:02;;;;;;;5.65;4.70;;;20.40;99.90;;;;;;5056662;28;20196;-83
2023/08/16 05:56:27;;;;;;;7.38;5.35;;;20.50;99.90;;;;;;5058611;28;20174;-84
2023/08/16 05:58:53;;;;;;;4.97;4.47;;;20.80;99.90;;;;;;5060034;28;20523;-85
2023/08/16 06:01:18;;;;;;;7.15;4.15;;;21.00;99.90;;;;;;5060774;28;20194;-83
2023/08/16 06:03:44;;;;;;;6.93;5.30;;;21.20;99.90;;;;;;5060608;28;20268;-83
2023/08/16 06:06:09;;;;;;;5.22;4.60;;;21.30;99.90;;;;;;5060239;28;20181;-83
2023/08/16 06:08:35;;;;;;;8.10;5.43;;;21.30;99.90;;;;;;5058566;28;20169;-85
2023/08/16 06:11:01;;;;;;;8.30;5.20;;;21.40;99.90;;;;;;5058196;28;20193;-82
2023/08/16 06:13:27;;;;;;;4.85;3.92;;;21.40;99.90;;;;;;5040079;28;20181;-85
2023/08/16 06:15:53;;;;;;;4.80;3.67;;;21.60;99.90;;;;;;5047023;28;20174;-84
2023/08/16 06:18:18;;;;;;;4.55;4.15;;;22.00;99.90;;;;;;5061861;28;20208;-83
2023/08/16 06:20:44;;;;;;;6.78;5.30;;;21.90;99.90;;;;;;5060175;28;20285;-84
2023/08/16 06:23:10;;;;;;;6.47;4.68;;;21.60;99.90;;;;;;5060904;28;20208;-81
2023/08/16 06:25:36;;;;;;;7.95;6.10;;;21.80;99.90;;;;;;5060768;28;20176;-84
2023/08/16 06:28:02;;;;;;;8.60;5.95;;;21.70;99.90;;;;;;5042863;28;20724;-83
2023/08/16 06:30:27;;;;;;;7.07;5.53;;;21.70;99.90;;;;;;5058977;28;20196;-83
2023/08/16 06:32:53;;;;;;;9.45;6.18;;;21.70;99.90;;;;;;5040267;28;20193;-83
2023/08/16 06:35:19;;;;;;;6.38;4.72;;;21.50;99.90;;;;;;5059921;28;20176;-84
2023/08/16 06:37:47;;;;;;;5.00;4.45;;;21.30;99.90;;;;;;5042774;28;20174;-83
2023/08/16 06:40:13;;;;;;;8.20;5.90;;;21.30;99.90;;;;;;5060222;28;20241;-85
2023/08/16 06:42:42;;;;;;;8.60;6.43;;;21.40;99.90;;;;;;5061052;28;20204;-86
2023/08/16 06:45:09;;;;;;;4.55;4.00;;;21.40;99.90;;;;;;5043350;28;20552;-83
2023/08/16 06:47:34;;;;;;;7.88;5.80;;;21.40;99.90;;;;;;5060674;28;20174;-83
2023/08/16 06:50:00;;;;;;;8.27;6.72;;;21.30;99.90;;;;;;5040300;28;20687;-84
2023/08/16 06:52:26;;;;;;;7.25;5.13;;;21.10;99.90;;;;;;5040640;28;20182;-85
2023/08/16 06:54:51;;;;;;;7.15;5.72;;;21.10;99.90;;;;;;5039650;28;20180;-84
2023/08/16 06:57:17;;;;;;;6.55;5.05;;;21.10;99.90;;;;;;5057828;28;20177;-85
2023/08/16 06:59:44;;;;;;;7.70;5.65;;;21.00;99.90;;;;;;5039304;28;20249;-85
2023/08/16 07:02:14;;;;;;;5.65;4.85;;;20.90;99.90;;;;;;5039639;28;20292;-85
2023/08/16 07:04:42;;;;;;;6.35;5.00;;;20.90;99.90;;;;;;5040044;28;20188;-84
2023/08/16 07:07:08;;;;;;;5.72;5.13;;;20.90;99.90;;;;;;5040356;28;20228;-85
2023/08/16 07:09:33;;;;;;;5.43;4.93;;;20.80;99.90;;;;;;5033272;28;20193;-84
2023/08/16 07:11:59;;;;;;;6.63;5.15;;;20.80;99.90;;;;;;5041042;28;20170;-84
2023/08/16 07:14:24;;;;;;;5.93;5.00;;;20.80;99.90;;;;;;5039763;28;20182;-85
2023/08/16 07:16:51;;;;;;;5.75;5.15;;;20.60;99.90;;;;;;5038073;28;20563;-84
2023/08/16 07:19:17;;;;;;;5.30;4.80;;;20.60;99.90;;;;;;5048132;28;20169;-83
2023/08/16 07:21:42;;;;;;;5.35;4.70;;;20.60;99.90;;;;;;5039710;28;20180;-85
2023/08/16 07:24:08;;;;;;;6.50;4.95;;;20.70;99.90;;;;;;5039706;28;20192;-85
2023/08/16 07:26:34;;;;;;;5.72;4.72;;;20.70;99.90;;;;;;5057568;28;20594;-85
2023/08/16 07:28:59;;;;;;;5.90;4.60;;;20.80;99.90;;;;;;5057795;28;20180;-85
2023/08/16 07:31:25;;;;;;;4.65;4.22;;;20.80;99.90;;;;;;5039616;28;20280;-84
2023/08/16 07:33:51;;;;;;;4.57;4.18;;;20.90;99.90;;;;;;5058103;28;20197;-85
2023/08/16 07:36:16;;;;;;;4.72;4.30;;;20.90;99.90;;;;;;5038932;28;20182;-86
2023/08/16 07:38:42;;;;;;;4.75;4.35;;;21.00;99.90;;;;;;5058462;28;20695;-85
2023/08/16 07:41:08;;;;;;;4.38;3.97;;;21.10;99.90;;;;;;5039433;28;20267;-85
2023/08/16 07:43:33;;;;;;;4.88;4.38;;;21.20;99.90;;;;;;5039891;28;20202;-85
2023/08/16 07:45:59;;;;;;;4.38;3.97;;;21.40;99.90;;;;;;5038949;28;20174;-85
2023/08/16 07:48:24;;;;;;;4.22;3.83;;;21.50;99.90;;;;;;5039094;28;20588;-83
2023/08/16 07:50:50;;;;;;;4.63;3.88;;;21.70;99.90;;;;;;5057177;28;20189;-85
2023/08/16 07:53:16;;;;;;;6.03;3.85;;;21.90;99.90;;;;;;5039148;28;20176;-85
2023/08/16 07:55:41;;;;;;;3.95;3.55;;;22.00;99.90;;;;;;5057691;28;20170;-85
2023/08/16 07:58:07;;;;;;;4.38;3.80;;;22.10;99.90;;;;;;5039011;28;20177;-85
2023/08/16 08:00:33;;;;;;;4.13;3.72;;;22.10;99.90;;;;;;5057469;28;20193;-84
2023/08/16 08:02:59;;;;;;;5.97;4.43;;;22.10;99.90;;;;;;5057293;28;20283;-85
2023/08/16 08:05:24;;;;;;;5.78;5.18;;;22.00;99.90;;;;;;5057584;28;20525;-84
2023/08/16 08:07:52;;;;;;;6.13;5.38;;;22.00;99.90;;;;;;5057511;28;20189;-85
2023/08/16 08:10:18;;;;;;;5.75;5.20;;;22.00;99.90;;;;;;5038657;28;20209;-87
2023/08/16 08:12:47;;;;;;;5.15;4.68;;;22.00;99.90;;;;;;5038711;28;20182;-85
2023/08/16 08:15:14;;;;;;;5.20;4.70;;;22.00;99.90;;;;;;5039382;28;20652;-85
2023/08/16 08:17:40;;;;;;;7.05;5.10;;;21.90;99.90;;;;;;5057378;28;20200;-84
2023/08/16 08:20:07;;;;;;;5.38;4.88;;;21.90;99.90;;;;;;5039040;28;20194;-85
2023/08/16 08:22:33;;;;;;;6.05;5.55;;;21.90;99.90;;;;;;5057405;28;20285;-84
2023/08/16 08:24:58;;;;;;;5.90;5.40;;;21.70;99.90;;;;;;5039556;28;20205;-86
2023/08/16 08:27:24;;;;;;;6.30;5.70;;;21.70;99.90;;;;;;5057854;28;20173;-85
2023/08/16 08:29:49;;;;;;;6.00;5.50;;;21.70;99.90;;;;;;5057496;28;20194;-85
2023/08/16 08:32:16;;;;;;;6.20;5.63;;;21.60;99.90;;;;;;5056499;28;20656;-85
2023/08/16 08:34:42;;;;;;;5.53;5.03;;;21.60;99.90;;;;;;5039362;28;20170;-85
2023/08/16 08:37:08;;;;;;;5.80;5.30;;;21.60;99.90;;;;;;5039126;28;20181;-85
2023/08/16 08:42:09;;;;;;;8.18;5.40;;;21.60;99.90;;;;;;5071907;22;20249;-86
2023/08/16 08:44:37;;;;;;;5.28;4.88;;;21.70;99.90;;;;;;5052063;28;20633;-87
2023/08/16 08:47:07;;;;;;;6.18;5.32;;;21.70;99.90;;;;;;5034394;28;20292;-87
2023/08/16 08:49:36;;;;;;;6.55;5.82;;;21.80;99.90;;;;;;5034217;28;20209;-86
2023/08/16 08:52:05;;;;;;;6.28;5.68;;;21.80;99.90;;;;;;5033979;28;20284;-89
2023/08/16 08:54:34;;;;;;;6.25;5.68;;;21.80;99.90;;;;;;5051854;28;20177;-87
2023/08/16 08:57:00;;;;;;;6.60;6.00;;;21.90;99.90;;;;;;5034018;28;20235;-87
2023/08/16 08:59:28;;;;;;;6.20;5.65;;;22.00;99.90;;;;;;5051905;28;20188;-86
2023/08/16 09:01:54;;;;;;;6.82;6.22;;;22.00;99.90;;;;;;5034318;28;20217;-87
2023/08/16 09:04:21;;;;;;;6.07;5.57;;;22.10;99.90;;;;;;5038095;28;20169;-89
2023/08/16 09:06:48;;;;;;;5.85;5.35;;;22.20;99.90;;;;;;5055600;28;20178;-87
2023/08/16 09:09:14;;;;;;;5.47;4.97;;;22.20;99.90;;;;;;5055288;28;20553;-87
2023/08/16 09:11:41;;;;;;;6.18;5.68;;;22.40;99.90;;;;;;5055253;28;20703;-86
2023/08/16 09:14:07;;;;;;;6.88;6.18;;;22.40;99.90;;;;;;5037738;28;20223;-87
2023/08/16 09:16:33;;;;;;;6.32;5.82;;;22.50;99.90;;;;;;5055578;28;20172;-87
2023/08/16 09:18:58;;;;;;;6.80;6.10;;;22.80;99.90;;;;;;5037577;28;20165;-87
2023/08/16 09:21:28;;;;;;;6.70;6.10;;;23.20;99.90;;;;;;5037051;28;20190;-87
2023/08/16 09:23:58;;;;;;;6.10;5.60;;;23.70;99.90;;;;;;5055330;28;20284;-87
2023/08/16 09:26:26;;;;;;;6.20;5.70;;;24.00;99.90;;;;;;5055418;28;20243;-87
2023/08/16 09:28:59;;;;;;;6.38;5.32;;;24.20;99.90;;;;;;5055095;28;20207;-87
2023/08/16 09:31:29;;;;;;;5.10;4.60;;;24.30;99.90;;;;;;5055023;28;20193;-87
2023/08/16 09:33:55;;;;;;;6.28;5.68;;;24.70;99.90;;;;;;5037162;28;20178;-87
2023/08/16 09:36:21;;;;;;;7.00;5.85;;;25.00;57.50;;;;;;5054683;28;20248;-87
2023/08/16 09:38:47;;;;;;;5.65;5.15;;;25.20;1.00;;;;;;5037149;28;20265;-87
2023/08/16 09:41:18;;;;;;;6.45;5.85;;;25.30;1.00;;;;;;5054679;28;20293;-87
2023/08/16 09:43:44;;;;;;;5.97;5.47;;;25.30;1.00;;;;;;5037010;28;20761;-87
2023/08/16 09:46:11;;;;;;;5.85;5.30;;;25.30;1.00;;;;;;5036971;28;20205;-86
2023/08/16 09:48:38;;;;;;;6.07;5.57;;;25.40;1.00;;;;;;5036923;28;20174;-87
2023/08/16 09:51:06;;;;;;;5.80;5.30;;;25.60;1.00;;;;;;5036736;28;20594;-87
2023/08/16 09:53:32;;;;;;;5.07;4.57;;;25.90;1.00;;;;;;5054902;28;20246;-89
2023/08/16 09:56:01;;;;;;;5.70;5.20;;;26.00;1.00;;;;;;5036616;28;20265;-90
2023/08/16 09:58:27;;;;;;;5.18;4.78;;;26.20;1.00;;;;;;5036981;28;20177;-87
2023/08/16 10:00:54;;;;;;;5.70;5.20;;;26.40;1.00;;;;;;5036705;28;20193;-86
2023/08/16 10:03:21;;;;;;;5.60;4.65;;;26.60;99.90;;;;;;5054693;28;20726;-87
2023/08/16 10:05:47;;;;;;;5.00;4.50;;;26.80;1.00;;;;;;5036612;28;20185;-89
2023/08/16 10:08:13;;;;;;;4.45;4.05;;;27.00;8.10;;;;;;5054514;28;20166;-87
2023/08/16 10:10:39;;;;;;;4.60;4.20;;;27.00;99.90;;;;;;5036165;28;20197;-87
2023/08/16 10:13:07;;;;;;;4.80;4.40;;;26.80;99.90;;;;;;5054524;28;20181;-86
2023/08/16 10:15:35;;;;;;;6.32;4.80;;;27.10;1.00;;;;;;5054004;28;20173;-87
2023/08/16 10:18:02;;;;;;;4.88;4.40;;;27.30;99.90;;;;;;5054267;28;20177;-87
2023/08/16 10:20:32;;;;;;;4.07;3.78;;;27.30;99.90;;;;;;5036139;28;20279;-90
2023/08/16 10:23:00;;;;;;;4.93;4.43;;;27.30;1.00;;;;;;5053841;28;20194;-87
2023/08/16 10:25:30;;;;;;;5.40;4.20;;;27.10;1.00;;;;;;5036372;28;20384;-87
2023/08/16 10:28:00;;;;;;;5.28;3.92;;;27.10;99.90;;;;;;5036063;28;20178;-88
2023/08/16 10:30:27;;;;;;;6.45;4.28;;;27.10;1.00;;;;;;5036091;28;20194;-87
2023/08/16 10:32:59;;;;;;;4.32;3.92;;;27.20;1.00;;;;;;5054036;28;20190;-87
2023/08/16 10:35:25;;;;;;;3.92;3.63;;;26.80;99.90;;;;;;5035614;28;20311;-87
2023/08/16 10:37:53;;;;;;;5.18;3.92;;;26.90;96.00;;;;;;5053996;28;20192;-87
2023/08/16 10:40:20;;;;;;;3.97;3.58;;;26.70;1.00;;;;;;5035595;28;20209;-87
2023/08/16 10:43:16;;;;;;;3.80;3.38;;;26.60;1.00;;;;;;5019586;28;20304;-87
2023/08/16 10:45:45;;;;;;;4.20;3.80;;;26.70;1.00;;;;;;5023055;28;20182;-86
2023/08/16 10:48:17;;;;;;;3.85;3.28;;;27.10;99.90;;;;;;5036239;28;20173;-90
2023/08/16 10:50:43;;;;;;;4.07;3.67;;;27.50;1.00;;;;;;5035722;28;20193;-89
2023/08/16 10:53:09;;;;;;;3.88;3.58;;;27.60;30.10;;;;;;5035802;28;20224;-87
2023/08/16 10:55:35;;;;;;;3.85;3.35;;;27.40;99.90;;;;;;5035735;28;20611;-87
2023/08/16 10:58:01;;;;;;;4.53;4.13;;;27.50;1.00;;;;;;5035700;28;20181;-87
2023/08/16 11:00:32;;;;;;;4.20;3.80;;;27.80;1.00;;;;;;5035649;28;20197;-87
2023/08/16 11:03:00;;;;;;;3.67;3.38;;;27.50;99.90;;;;;;5035373;28;20208;-87
2023/08/16 11:05:26;;;;;;;4.10;3.70;;;27.70;1.00;;;;;;5035570;28;20169;-89
2023/08/16 11:07:52;;;;;;;4.03;3.40;;;28.00;31.20;;;;;;5035532;28;20174;-87
2023/08/16 11:10:18;;;;;;;3.72;3.33;;;28.30;1.00;;;;;;5053148;28;20273;-88
2023/08/16 11:12:43;;;;;;;3.38;3.05;;;28.50;99.90;;;;;;5035331;28;20205;-89
2023/08/16 11:15:09;;;;;;;3.80;3.50;;;28.70;1.00;;;;;;5035675;28;20264;-87
2023/08/16 11:17:35;;;;;;;3.70;3.35;;;28.60;95.80;;;;;;5035287;28;20174;-87
2023/08/16 11:20:01;;;;;;;3.38;3.08;;;28.60;99.90;;;;;;5035013;28;20524;-87
2023/08/16 11:22:28;;;;;;;3.40;3.10;;;28.50;1.00;;;;;;5052925;28;20198;-87
2023/08/16 11:24:53;;;;;;;3.55;3.22;;;28.80;1.00;;;;;;5034795;28;20180;-87
2023/08/16 11:27:21;;;;;;;4.18;3.45;;;28.90;1.00;;;;;;5034407;28;20161;-87
2023/08/16 11:29:54;;;;;;;3.40;2.90;;;29.30;1.00;;;;;;5034860;28;20181;-87
2023/08/16 11:32:37;;;;;;;3.53;2.90;;;29.50;23.10;;;;;;5035010;28;20181;-87
2023/08/16 11:35:11;;;;;;;3.00;2.70;;;29.80;1.00;;;;;;5034473;28;20238;-87
2023/08/16 11:37:40;;;;;;;2.90;2.60;;;30.10;99.90;;;;;;5035017;28;20237;-87
2023/08/16 11:40:08;;;;;;;3.15;2.70;;;30.20;1.00;;;;;;5034417;28;20213;-87
2023/08/16 11:42:35;;;;;;;3.20;2.90;;;30.40;48.60;;;;;;5034888;28;20208;-87
2023/08/16 11:45:01;;;;;;;2.67;2.47;;;30.40;1.00;;;;;;5035082;28;20170;-87
2023/08/16 11:47:26;;;;;;;3.45;2.80;;;30.20;1.00;;;;;;5052457;28;20177;-87
2023/08/16 11:49:52;;;;;;;3.55;2.60;;;29.80;1.00;;;;;;5052152;28;20189;-87
2023/08/16 11:52:21;;;;;;;3.28;2.97;;;29.60;1.00;;;;;;5052772;28;20209;-87
2023/08/16 11:54:47;;;;;;;3.03;2.58;;;29.40;99.90;;;;;;5053228;28;20177;-87
2023/08/16 11:57:18;;;;;;;3.58;2.63;;;29.60;99.90;;;;;;5034460;28;20691;-87
2023/08/16 11:59:52;;;;;;;2.55;2.35;;;29.90;99.90;;;;;;5034459;28;20195;-90
2023/08/16 12:02:18;;;;;;;2.67;2.47;;;30.00;1.00;;;;;;5034357;28;20200;-87
2023/08/16 12:04:43;;;;;;;2.80;2.60;;;29.80;48.60;;;;;;5034428;28;20177;-88
2023/08/16 12:07:10;;;;;;;2.80;2.50;;;30.00;1.00;;;;;;5052397;28;20169;-87
2023/08/16 12:09:40;;;;;;;3.25;2.60;;;30.00;1.00;;;;;;5051923;28;20600;-87
2023/08/16 12:12:08;;;;;;;4.45;2.40;;;30.00;1.00;;;;;;5034301;28;20203;-87
2023/08/16 12:14:33;;;;;;;3.65;2.40;;;30.40;1.00;;;;;;5034219;28;20609;-87
2023/08/16 12:17:00;;;;;;;2.50;2.30;;;31.00;1.00;;;;;;5052271;28;20204;-85
2023/08/16 12:19:25;;;;;;;2.47;2.28;;;31.30;1.00;;;;;;5052122;28;20182;-88
2023/08/16 12:21:52;;;;;;;2.50;2.30;;;30.90;99.90;;;;;;5052308;28;20220;-88
2023/08/16 12:24:18;;;;;;;3.63;2.50;;;30.40;99.90;;;;;;5052015;28;20236;-87
2023/08/16 12:26:44;;;;;;;3.13;2.70;;;30.10;99.90;;;;;;5034227;28;20273;-87
2023/08/16 12:29:09;;;;;;;3.95;2.30;;;30.20;56.30;;;;;;5034078;28;20169;-88
2023/08/16 12:31:35;;;;;;;3.05;2.20;;;30.40;99.90;;;;;;5033788;28;20196;-88
2023/08/16 12:34:01;;;;;;;2.60;2.40;;;31.00;1.00;;;;;;5034019;28;20222;-90
2023/08/16 12:36:26;;;;;;;2.90;2.47;;;31.20;1.00;;;;;;5051967;28;20173;-87
2023/08/16 12:38:52;;;;;;;2.40;2.20;;;31.40;1.00;;;;;;5058512;28;20584;-87
2023/08/16 12:41:17;;;;;;;3.45;2.40;;;31.60;1.00;;;;;;5040107;28;20215;-87
2023/08/16 12:43:43;;;;;;;2.50;2.30;;;31.90;1.00;;;;;;5040502;28;20693;-88
2023/08/16 12:46:09;;;;;;;3.05;2.28;;;32.10;1.00;;;;;;5058675;28;20260;-88
2023/08/16 12:48:35;;;;;;;2.90;2.55;;;31.90;1.00;;;;;;5058449;28;20212;-88